Time;durP1;ratioP1;P1;durP2;ratioP2;P2;SDS_P1;SDS_P2;PMS_P1;PMS_P2;Temp;Humidity;BMP_temperature;BMP_pressure;BME280_temperature;BME280_humidity;BME280_pressure;Samples;Min_cycle;Max_cycle;Signal;HPM_P1;HPM_P2
2022/04/24 00:02:07;;;;;;;13.68;8.95;;;8.90;99.90;;;;;;5133087;28;20486;-62
2022/04/24 00:04:33;;;;;;;16.42;8.93;;;9.00;99.90;;;;;;5133105;28;20508;-62
2022/04/24 00:06:59;;;;;;;12.13;9.13;;;9.00;99.90;;;;;;5114764;28;20075;-62
2022/04/24 00:09:24;;;;;;;10.88;8.23;;;8.60;99.90;;;;;;5114726;28;20051;-61
2022/04/24 00:11:50;;;;;;;12.88;9.07;;;8.70;99.90;;;;;;5133050;28;20121;-61
2022/04/24 00:14:17;;;;;;;10.60;8.52;;;9.30;99.90;;;;;;5133076;28;20047;-61
2022/04/24 00:16:45;;;;;;;15.13;9.43;;;8.70;99.90;;;;;;5134620;27;20156;-61
2022/04/24 00:19:10;;;;;;;13.43;9.23;;;8.60;99.90;;;;;;5136719;27;20055;-62
2022/04/24 00:21:36;;;;;;;13.55;9.45;;;8.70;99.90;;;;;;5136604;27;20486;-62
2022/04/24 00:24:02;;;;;;;11.30;8.70;;;9.50;99.90;;;;;;5136630;27;20091;-62
2022/04/24 00:26:28;;;;;;;;;;;8.70;99.90;;;;;;5136980;27;20078;-62
2022/04/24 00:28:54;;;;;;;10.32;8.93;;;9.60;99.90;;;;;;5136570;27;19919;-61
2022/04/24 00:31:20;;;;;;;10.60;8.52;;;9.10;99.90;;;;;;5136461;27;20114;-61
2022/04/24 00:33:45;;;;;;;12.25;9.38;;;8.50;99.90;;;;;;5118299;27;20079;-62
2022/04/24 00:36:11;;;;;;;12.40;9.40;;;8.20;99.90;;;;;;5136404;27;20039;-61
2022/04/24 00:38:37;;;;;;;12.85;9.27;;;8.90;99.90;;;;;;5136740;27;20107;-62
2022/04/24 00:41:03;;;;;;;13.15;9.57;;;8.40;99.90;;;;;;5136238;27;20383;-61
2022/04/24 00:43:29;;;;;;;;;;;8.60;99.90;;;;;;5117853;27;20092;-61
2022/04/24 00:46:12;;;;;;;12.32;9.30;;;9.50;99.90;;;;;;5118019;27;20007;-62
2022/04/24 00:48:38;;;;;;;11.77;9.38;;;8.30;99.90;;;;;;5117495;27;20047;-61
2022/04/24 00:51:04;;;;;;;11.40;9.43;;;9.40;99.90;;;;;;5135776;27;20514;-61
2022/04/24 00:53:30;;;;;;;15.32;10.05;;;8.20;99.90;;;;;;5136067;27;20047;-61
2022/04/24 00:55:56;;;;;;;14.05;9.73;;;8.00;99.90;;;;;;5136045;27;20055;-62
2022/04/24 00:58:22;;;;;;;;;;;8.10;99.90;;;;;;5136393;27;20094;-62
2022/04/24 01:00:48;;;;;;;18.55;10.23;;;8.10;99.90;;;;;;5135800;27;19978;-61
2022/04/24 01:03:14;;;;;;;16.60;10.32;;;8.00;99.90;;;;;;5135766;27;20065;-61
2022/04/24 01:05:40;;;;;;;13.32;10.35;;;8.10;99.90;;;;;;5117420;27;20035;-62
2022/04/24 01:08:05;;;;;;;13.90;10.60;;;8.60;99.90;;;;;;5135786;27;20047;-61
2022/04/24 01:10:38;;;;;;;13.55;9.82;;;8.10;99.90;;;;;;5135824;27;20047;-62
2022/04/24 01:13:05;;;;;;;15.23;10.70;;;8.00;99.90;;;;;;5135643;27;20050;-61
2022/04/24 01:15:31;;;;;;;;;;;8.20;99.90;;;;;;5117422;27;20486;-61
2022/04/24 01:17:57;;;;;;;14.30;10.60;;;8.80;99.90;;;;;;5135541;27;19929;-62
2022/04/24 01:20:23;;;;;;;13.52;10.35;;;8.50;99.90;;;;;;5117129;27;20085;-61
2022/04/24 01:22:49;;;;;;;14.55;10.65;;;7.70;99.90;;;;;;5135430;27;20078;-62
2022/04/24 01:25:15;;;;;;;15.05;11.23;;;7.30;99.90;;;;;;5117034;27;20047;-61
2022/04/24 01:27:40;;;;;;;14.50;10.93;;;8.50;99.90;;;;;;5134923;27;20070;-61
2022/04/24 01:30:07;;;;;;;13.65;10.75;;;7.90;99.90;;;;;;5135277;27;20051;-61
2022/04/24 01:32:34;;;;;;;15.93;10.70;;;8.10;99.90;;;;;;5135186;27;20044;-62
2022/04/24 01:35:00;;;;;;;13.32;10.68;;;8.20;99.90;;;;;;5135231;27;20127;-61
2022/04/24 01:37:26;;;;;;;13.63;10.20;;;8.10;99.90;;;;;;5135204;27;20051;-61
2022/04/24 01:39:55;;;;;;;13.52;10.27;;;7.70;99.90;;;;;;5135088;27;20596;-62
2022/04/24 01:42:21;;;;;;;12.82;10.38;;;8.10;99.90;;;;;;5134584;27;20051;-60
2022/04/24 01:44:47;;;;;;;11.35;10.07;;;9.20;99.90;;;;;;5134999;27;20051;-63
2022/04/24 01:47:13;;;;;;;15.23;10.73;;;9.60;99.90;;;;;;5134973;27;20387;-62
2022/04/24 01:49:39;;;;;;;15.15;10.43;;;8.00;99.90;;;;;;5099789;27;20058;-62
2022/04/24 01:52:07;;;;;;;14.05;10.95;;;8.50;99.90;;;;;;5134881;27;20039;-61
2022/04/24 01:54:33;;;;;;;13.38;10.13;;;7.90;99.90;;;;;;5116426;27;20039;-61
2022/04/24 01:56:59;;;;;;;16.08;10.20;;;8.00;99.90;;;;;;5134834;27;20049;-61
2022/04/24 01:59:25;;;;;;;15.20;9.98;;;7.80;99.90;;;;;;5134796;27;20082;-62
2022/04/24 02:01:51;;;;;;;12.40;10.00;;;8.90;99.90;;;;;;5099339;27;20039;-61
2022/04/24 02:04:19;;;;;;;14.20;9.88;;;9.00;99.90;;;;;;5134651;27;20050;-62
2022/04/24 02:06:45;;;;;;;15.27;9.95;;;7.90;99.90;;;;;;5116447;27;20059;-62
2022/04/24 02:09:10;;;;;;;12.02;10.15;;;8.20;99.90;;;;;;5134567;27;20100;-62
2022/04/24 02:11:37;;;;;;;13.15;9.48;;;8.90;99.90;;;;;;5134567;27;20043;-62
2022/04/24 02:14:03;;;;;;;15.98;9.65;;;8.20;99.90;;;;;;5134415;27;20459;-61
2022/04/24 02:16:30;;;;;;;15.30;9.77;;;8.10;99.90;;;;;;5116148;27;20150;-62
2022/04/24 02:18:55;;;;;;;19.27;9.70;;;8.00;99.90;;;;;;5134388;27;20387;-61
2022/04/24 02:21:21;;;;;;;12.00;9.15;;;8.00;99.90;;;;;;5134239;27;20068;-61
2022/04/24 02:23:47;;;;;;;12.75;9.40;;;8.60;99.90;;;;;;5134270;27;20134;-63
2022/04/24 02:26:12;;;;;;;13.88;10.55;;;8.30;99.90;;;;;;5116172;27;20043;-62
2022/04/24 02:28:38;;;;;;;14.07;10.82;;;8.10;99.90;;;;;;5134240;27;20051;-61
2022/04/24 02:31:04;;;;;;;14.40;10.18;;;8.20;99.90;;;;;;5134207;27;20039;-62
2022/04/24 02:33:29;;;;;;;13.50;10.30;;;9.40;99.90;;;;;;5134514;27;20047;-62
2022/04/24 02:35:55;;;;;;;14.95;11.10;;;8.20;99.90;;;;;;5134081;27;20072;-62
2022/04/24 02:38:21;;;;;;;14.27;11.57;;;9.40;99.90;;;;;;5115501;28;20175;-62
2022/04/24 02:40:46;;;;;;;13.93;10.10;;;8.40;99.90;;;;;;5133609;27;20050;-62
2022/04/24 02:43:12;;;;;;;15.63;10.68;;;8.50;99.90;;;;;;5134038;27;20055;-62
2022/04/24 02:45:38;;;;;;;14.70;10.18;;;8.50;99.90;;;;;;5133987;27;20050;-63
2022/04/24 02:48:04;;;;;;;;;;;8.90;99.90;;;;;;5134434;27;20043;-61
2022/04/24 02:50:30;;;;;;;14.88;10.88;;;7.90;99.90;;;;;;5115713;28;19919;-63
2022/04/24 02:52:56;;;;;;;15.98;10.30;;;9.60;99.90;;;;;;5133581;27;20436;-62
2022/04/24 02:55:23;;;;;;;15.38;10.77;;;8.20;99.90;;;;;;5133811;27;20087;-60
2022/04/24 02:57:49;;;;;;;11.88;9.85;;;9.10;99.90;;;;;;5133713;27;20103;-61
2022/04/24 03:00:22;;;;;;;12.85;10.23;;;8.30;99.90;;;;;;5133832;27;20070;-63
2022/04/24 03:02:49;;;;;;;12.02;9.57;;;8.00;99.90;;;;;;5133851;27;20043;-62
2022/04/24 03:05:19;;;;;;;13.70;10.02;;;8.20;99.90;;;;;;5133687;28;20047;-61
2022/04/24 03:07:45;;;;;;;13.35;9.93;;;9.30;99.90;;;;;;5133738;28;20107;-62
2022/04/24 03:10:12;;;;;;;16.20;11.27;;;8.30;99.90;;;;;;5133709;28;20130;-62
2022/04/24 03:12:39;;;;;;;14.13;10.30;;;8.30;99.90;;;;;;5133670;28;20398;-63
2022/04/24 03:15:06;;;;;;;15.65;9.98;;;8.20;99.90;;;;;;5133617;28;20085;-62
2022/04/24 03:17:34;;;;;;;12.77;9.77;;;8.10;99.90;;;;;;5133592;28;20044;-61
2022/04/24 03:20:00;;;;;;;13.27;9.65;;;8.80;99.90;;;;;;5133511;28;20129;-61
2022/04/24 03:22:27;;;;;;;11.65;8.60;;;8.20;99.90;;;;;;5133518;28;20066;-62
2022/04/24 03:24:53;;;;;;;11.80;8.82;;;8.60;99.90;;;;;;5098136;28;20051;-64
2022/04/24 03:27:19;;;;;;;12.77;8.70;;;8.30;99.90;;;;;;5133512;28;20054;-64
2022/04/24 03:29:45;;;;;;;12.27;8.52;;;9.10;99.90;;;;;;5115166;28;20079;-64
2022/04/24 03:32:11;;;;;;;11.07;7.68;;;8.20;99.90;;;;;;5133451;28;20465;-62
2022/04/24 03:34:37;;;;;;;12.80;8.52;;;8.30;99.90;;;;;;5133455;28;20534;-62
2022/04/24 03:37:06;;;;;;;13.27;8.18;;;8.30;99.90;;;;;;5133422;28;20047;-62
2022/04/24 03:39:32;;;;;;;11.85;8.65;;;8.40;99.90;;;;;;5133285;28;20424;-62
2022/04/24 03:41:58;;;;;;;15.50;8.80;;;8.80;99.90;;;;;;5133201;28;20070;-61
2022/04/24 03:44:24;;;;;;;10.73;8.60;;;8.40;99.90;;;;;;5133432;28;20055;-63
2022/04/24 03:46:50;;;;;;;13.18;8.38;;;9.10;99.90;;;;;;5115166;28;20050;-62
2022/04/24 03:49:16;;;;;;;14.90;8.68;;;7.90;99.90;;;;;;5133361;28;20054;-62
2022/04/24 03:51:42;;;;;;;11.32;8.57;;;7.80;99.90;;;;;;5136558;27;20390;-62
2022/04/24 03:54:08;;;;;;;10.73;8.93;;;8.80;99.90;;;;;;5118894;27;20124;-61
2022/04/24 03:56:34;;;;;;;16.25;9.35;;;8.00;99.90;;;;;;5137244;27;20054;-63
2022/04/24 03:59:01;;;;;;;13.57;9.05;;;7.90;99.90;;;;;;5137163;27;20043;-62
2022/04/24 04:01:27;;;;;;;14.75;9.02;;;8.30;99.90;;;;;;5136992;27;20031;-62
2022/04/24 04:03:53;;;;;;;12.68;8.75;;;8.70;99.90;;;;;;5137058;27;20050;-62
2022/04/24 04:06:19;;;;;;;;;;;8.10;99.90;;;;;;5137451;27;20440;-62
2022/04/24 04:08:45;;;;;;;13.55;9.02;;;8.10;99.90;;;;;;5136914;27;19926;-64
2022/04/24 04:11:12;;;;;;;14.23;9.75;;;7.90;99.90;;;;;;5136853;27;20475;-62
2022/04/24 04:13:38;;;;;;;14.30;9.40;;;8.10;99.90;;;;;;5136808;27;20051;-63
2022/04/24 04:16:04;;;;;;;11.90;8.93;;;9.10;99.90;;;;;;5136807;27;20403;-63
2022/04/24 04:18:29;;;;;;;18.70;10.23;;;8.30;99.90;;;;;;5118676;27;20099;-63
2022/04/24 04:20:55;;;;;;;13.63;9.98;;;8.30;99.90;;;;;;5117996;27;20483;-62
2022/04/24 04:23:21;;;;;;;13.23;9.27;;;8.90;99.90;;;;;;5136778;27;20058;-62
2022/04/24 04:25:46;;;;;;;13.32;9.45;;;8.40;99.90;;;;;;5118252;27;20039;-62
2022/04/24 04:28:12;;;;;;;13.15;10.38;;;8.20;99.90;;;;;;5136559;27;20126;-62
2022/04/24 04:30:38;;;;;;;;;;;8.40;99.90;;;;;;5136901;27;20059;-63
2022/04/24 04:33:04;;;;;;;17.60;10.48;;;8.10;99.90;;;;;;5136468;27;20359;-62
2022/04/24 04:35:30;;;;;;;13.30;9.38;;;8.50;99.90;;;;;;5136407;27;20035;-62
2022/04/24 04:37:56;;;;;;;15.95;10.23;;;8.70;99.90;;;;;;5136447;27;20042;-63
2022/04/24 04:40:22;;;;;;;14.02;10.32;;;6.10;99.90;;;;;;5136302;27;20131;-62
2022/04/24 04:42:48;;;;;;;17.35;9.93;;;8.10;99.90;;;;;;5136178;27;20134;-64
2022/04/24 04:45:17;;;;;;;15.35;9.35;;;8.30;99.90;;;;;;5136211;27;20525;-63
2022/04/24 04:47:44;;;;;;;15.68;9.85;;;8.20;99.90;;;;;;5136180;27;20047;-63
2022/04/24 04:50:10;;;;;;;18.42;9.80;;;10.10;99.90;;;;;;5136093;27;20039;-61
2022/04/24 04:52:36;;;;;;;;;;;8.20;99.90;;;;;;5101310;27;20074;-62
2022/04/24 04:55:04;;;;;;;17.02;9.82;;;8.60;99.90;;;;;;5152286;27;19970;-62
2022/04/24 04:57:29;;;;;;;18.23;10.30;;;8.50;99.90;;;;;;5135980;27;20055;-63
2022/04/24 04:59:55;;;;;;;19.13;10.25;;;9.30;99.90;;;;;;5136029;27;20070;-63
2022/04/24 05:02:21;;;;;;;11.75;9.60;;;8.30;99.90;;;;;;5135021;27;20042;-62
2022/04/24 05:04:47;;;;;;;16.55;9.82;;;8.50;99.90;;;;;;5135857;27;20130;-63
2022/04/24 05:07:13;;;;;;;18.58;10.15;;;8.50;99.90;;;;;;5135838;27;20469;-64
2022/04/24 05:09:39;;;;;;;13.73;9.55;;;8.30;99.90;;;;;;5117347;27;20124;-62
2022/04/24 05:12:07;;;;;;;18.10;10.18;;;8.50;99.90;;;;;;5135684;27;20056;-63
2022/04/24 05:14:33;;;;;;;16.08;9.93;;;8.60;99.90;;;;;;5117478;27;20096;-63
2022/04/24 05:16:59;;;;;;;13.98;9.23;;;8.80;99.90;;;;;;5135642;27;20046;-63
2022/04/24 05:19:27;;;;;;;15.70;9.52;;;9.40;99.90;;;;;;5135598;27;20082;-63
2022/04/24 05:21:53;;;;;;;15.32;10.27;;;9.00;99.90;;;;;;5135410;27;20039;-63
2022/04/24 05:24:19;;;;;;;15.45;10.07;;;9.40;99.90;;;;;;5117258;27;20126;-62
2022/04/24 05:26:44;;;;;;;13.60;9.55;;;8.90;99.90;;;;;;5135420;27;20039;-63
2022/04/24 05:29:10;;;;;;;13.82;9.68;;;9.20;99.90;;;;;;5135348;27;20118;-62
2022/04/24 05:31:36;;;;;;;19.27;9.63;;;8.80;99.90;;;;;;5135383;27;20040;-62
2022/04/24 05:34:02;;;;;;;17.45;8.80;;;8.70;99.90;;;;;;5135308;27;20134;-63
2022/04/24 05:36:27;;;;;;;17.70;9.30;;;8.90;99.90;;;;;;5135259;27;20055;-63
2022/04/24 05:38:53;;;;;;;12.05;8.30;;;8.90;99.90;;;;;;5116979;27;20496;-63
2022/04/24 05:41:19;;;;;;;16.50;8.45;;;9.00;99.90;;;;;;5135083;27;20051;-63
2022/04/24 05:43:44;;;;;;;12.73;7.72;;;9.30;99.90;;;;;;5135203;27;20055;-64
2022/04/24 05:46:10;;;;;;;11.35;7.13;;;9.10;99.90;;;;;;5135017;27;20475;-63
2022/04/24 05:48:36;;;;;;;11.73;7.95;;;9.30;99.90;;;;;;5134941;27;20118;-64
2022/04/24 05:51:01;;;;;;;9.88;6.28;;;9.20;99.90;;;;;;5134918;27;20103;-64
2022/04/24 05:53:27;;;;;;;12.75;7.10;;;9.00;99.90;;;;;;5134902;27;20043;-62
2022/04/24 05:55:52;;;;;;;12.38;7.00;;;10.00;99.90;;;;;;5116425;27;20043;-63
2022/04/24 05:58:18;;;;;;;10.25;6.28;;;9.50;99.90;;;;;;5134833;27;20402;-63
2022/04/24 06:00:44;;;;;;;10.88;5.97;;;9.00;99.90;;;;;;5134655;27;20505;-62
2022/04/24 06:03:09;;;;;;;11.07;5.65;;;10.20;99.90;;;;;;5134661;27;20107;-63
2022/04/24 06:05:36;;;;;;;9.88;5.53;;;9.30;99.90;;;;;;5134656;27;20130;-62
2022/04/24 06:08:02;;;;;;;7.03;5.40;;;9.40;99.90;;;;;;5116165;27;20099;-63
2022/04/24 06:10:28;;;;;;;9.10;4.80;;;9.10;99.90;;;;;;5134574;27;20043;-62
2022/04/24 06:12:54;;;;;;;7.90;4.40;;;9.40;99.90;;;;;;5116053;27;20099;-64
2022/04/24 06:15:30;;;;;;;9.60;4.57;;;10.00;99.90;;;;;;5134487;27;20043;-63
2022/04/24 06:17:57;;;;;;;10.38;4.28;;;9.60;99.90;;;;;;5134542;27;20047;-64
2022/04/24 06:20:25;;;;;;;10.10;4.55;;;10.50;99.90;;;;;;5134377;27;20051;-62
2022/04/24 06:22:53;;;;;;;7.47;3.75;;;10.00;99.90;;;;;;5133194;27;20051;-68
2022/04/24 06:25:23;;;;;;;7.43;4.10;;;9.90;99.90;;;;;;5128699;27;20054;-65
2022/04/24 06:27:50;;;;;;;8.05;4.38;;;9.70;99.90;;;;;;5131632;27;20482;-66
2022/04/24 06:30:17;;;;;;;7.25;3.83;;;9.70;99.90;;;;;;5140393;27;20058;-64
2022/04/24 06:32:44;;;;;;;7.72;3.80;;;10.00;99.90;;;;;;5127352;27;20040;-65
2022/04/24 06:35:12;;;;;;;12.60;4.60;;;9.80;99.90;;;;;;5129804;27;20047;-62
2022/04/24 06:37:39;;;;;;;11.43;4.93;;;10.30;99.90;;;;;;5132567;27;20470;-64
2022/04/24 06:40:09;;;;;;;13.25;4.68;;;10.20;99.90;;;;;;5140176;27;20050;-63
2022/04/24 06:42:35;;;;;;;10.63;4.90;;;10.10;99.90;;;;;;5131794;27;20134;-64
2022/04/24 06:45:02;;;;;;;13.02;4.90;;;10.80;99.90;;;;;;5112517;27;20047;-65
2022/04/24 06:47:28;;;;;;;11.68;4.90;;;10.10;99.90;;;;;;5113734;27;20055;-64
2022/04/24 06:49:56;;;;;;;8.90;4.60;;;10.20;99.90;;;;;;5113718;27;20091;-64
2022/04/24 06:52:22;;;;;;;12.55;5.05;;;10.40;99.90;;;;;;5132069;27;20066;-63
2022/04/24 06:54:48;;;;;;;11.82;4.70;;;11.30;99.90;;;;;;5095098;27;20483;-67
2022/04/24 06:57:14;;;;;;;10.38;3.95;;;11.10;99.90;;;;;;5131590;27;20169;-63
2022/04/24 06:59:39;;;;;;;9.77;4.45;;;11.10;99.90;;;;;;5080091;27;20035;-64
2022/04/24 07:02:06;;;;;;;10.50;4.03;;;10.50;99.90;;;;;;5131367;27;20055;-67
2022/04/24 07:04:31;;;;;;;7.53;4.05;;;10.60;99.90;;;;;;5113122;27;20379;-62
2022/04/24 07:06:57;;;;;;;7.72;3.83;;;10.80;99.90;;;;;;5150451;27;20050;-64
2022/04/24 07:09:23;;;;;;;7.13;3.50;;;10.70;99.90;;;;;;5149366;27;20046;-64
2022/04/24 07:11:48;;;;;;;7.93;3.63;;;11.00;99.90;;;;;;5150507;27;20042;-65
2022/04/24 07:14:14;;;;;;;10.32;4.03;;;10.50;99.90;;;;;;5135619;27;20071;-66
2022/04/24 07:16:41;;;;;;;8.68;4.00;;;11.00;99.90;;;;;;5111881;27;20035;-61
2022/04/24 07:19:07;;;;;;;7.30;3.42;;;11.10;99.90;;;;;;5150135;27;20053;-68
2022/04/24 07:21:32;;;;;;;7.65;3.70;;;11.00;99.90;;;;;;5150888;27;20042;-65
2022/04/24 07:23:58;;;;;;;9.25;4.00;;;10.90;99.90;;;;;;5153855;27;20479;-64
2022/04/24 07:26:24;;;;;;;31.90;4.90;;;11.10;99.90;;;;;;5156874;27;20550;-63
2022/04/24 07:28:49;;;;;;;8.00;3.78;;;11.50;99.90;;;;;;5141919;27;20065;-64
2022/04/24 07:31:18;;;;;;;8.63;3.92;;;11.40;99.90;;;;;;5137572;27;20103;-63
2022/04/24 07:33:44;;;;;;;9.05;3.88;;;11.00;99.90;;;;;;5149326;27;20490;-64
2022/04/24 07:36:09;;;;;;;10.23;3.78;;;10.90;99.90;;;;;;5138369;27;20095;-63
2022/04/24 07:38:35;;;;;;;13.73;4.13;;;12.00;99.90;;;;;;5158367;27;20042;-63
2022/04/24 07:41:02;;;;;;;7.88;3.40;;;11.60;99.90;;;;;;5131518;27;20104;-70
2022/04/24 07:43:28;;;;;;;11.02;4.82;;;11.50;99.90;;;;;;5139958;27;20055;-63
2022/04/24 07:45:54;;;;;;;8.23;3.63;;;12.60;99.90;;;;;;5146038;27;20042;-64
2022/04/24 07:48:20;;;;;;;8.32;3.95;;;11.30;99.90;;;;;;5153320;27;20058;-65
2022/04/24 07:50:49;;;;;;;6.65;3.67;;;11.80;99.90;;;;;;5154883;27;20148;-63
2022/04/24 08:05:48;;;;;;;13.50;4.28;;;11.60;99.90;;;;;;5170948;27;20368;-64
2022/04/24 08:08:24;;;;;;;9.20;3.88;;;12.30;99.90;;;;;;5150454;27;20054;-64
2022/04/24 08:10:57;;;;;;;7.20;4.50;;;12.60;99.90;;;;;;5151432;27;20531;-63
2022/04/24 08:13:24;;;;;;;10.65;4.50;;;12.00;99.90;;;;;;5151127;27;20042;-64
2022/04/24 08:15:50;;;;;;;8.75;4.63;;;12.10;99.90;;;;;;5151047;27;20050;-62
2022/04/24 08:18:17;;;;;;;8.93;4.28;;;13.20;99.90;;;;;;5151267;27;20045;-65
2022/04/24 08:20:43;;;;;;;12.93;4.72;;;12.10;99.90;;;;;;5143729;27;20082;-65
2022/04/24 08:23:11;;;;;;;10.75;4.60;;;12.30;99.90;;;;;;5147314;27;20043;-65
2022/04/24 08:25:37;;;;;;;8.30;4.45;;;12.10;99.90;;;;;;5150564;27;20075;-63
2022/04/24 08:28:08;;;;;;;8.77;5.68;;;12.20;99.90;;;;;;5150528;27;20043;-64
2022/04/24 08:30:38;;;;;;;9.52;4.75;;;12.90;99.90;;;;;;5151139;27;20380;-64
2022/04/24 08:33:04;;;;;;;7.80;4.68;;;12.40;99.90;;;;;;5150912;27;20051;-62
2022/04/24 08:35:30;;;;;;;;;;;11.90;99.90;;;;;;5151282;27;20119;-64
2022/04/24 08:37:56;;;;;;;7.88;4.70;;;12.10;99.90;;;;;;5150809;27;20364;-66
2022/04/24 08:40:24;;;;;;;10.38;4.47;;;12.70;99.90;;;;;;5149416;27;20038;-62
2022/04/24 08:42:51;;;;;;;9.68;4.28;;;12.50;99.90;;;;;;5150540;27;20500;-65
2022/04/24 08:45:16;;;;;;;12.10;4.68;;;12.30;99.90;;;;;;5150711;27;20479;-63
2022/04/24 08:47:44;;;;;;;7.53;3.97;;;12.90;99.90;;;;;;5150712;27;20046;-63
2022/04/24 08:50:11;;;;;;;11.00;4.30;;;12.60;99.90;;;;;;5150556;27;20090;-64
2022/04/24 08:52:37;;;;;;;9.25;3.65;;;12.70;99.90;;;;;;5150457;27;20050;-63
2022/04/24 08:55:03;;;;;;;6.55;3.85;;;12.50;99.90;;;;;;5150296;27;20449;-65
2022/04/24 08:57:32;;;;;;;;;;;12.20;99.90;;;;;;5150682;27;20132;-64
2022/04/24 08:59:59;;;;;;;7.88;4.32;;;13.10;99.90;;;;;;5150449;27;19919;-63
2022/04/24 09:02:26;;;;;;;8.10;3.92;;;13.20;99.90;;;;;;5150353;27;20047;-63
2022/04/24 09:04:55;;;;;;;;;;;12.50;99.90;;;;;;5146643;27;20055;-63
2022/04/24 09:07:21;;;;;;;9.88;4.13;;;12.80;99.90;;;;;;5135221;27;19927;-65
2022/04/24 09:09:53;;;;;;;8.52;4.05;;;13.00;99.90;;;;;;5136187;27;20053;-62
2022/04/24 09:12:28;;;;;;;12.07;4.53;;;14.10;99.90;;;;;;5136508;27;20047;-62
2022/04/24 09:14:58;;;;;;;7.32;4.18;;;13.00;99.90;;;;;;5136259;27;20107;-63
2022/04/24 09:17:29;;;;;;;10.95;4.13;;;12.70;99.90;;;;;;5136297;27;20082;-63
2022/04/24 09:19:56;;;;;;;10.85;4.00;;;12.70;99.90;;;;;;5135730;27;20495;-65
2022/04/24 09:22:22;;;;;;;10.02;4.30;;;12.70;99.90;;;;;;5133712;27;20127;-65
2022/04/24 09:24:52;;;;;;;12.93;4.43;;;12.60;99.90;;;;;;5134667;27;20130;-62
2022/04/24 09:27:32;;;;;;;9.93;4.40;;;12.90;99.90;;;;;;5134265;27;20065;-65
2022/04/24 09:30:08;;;;;;;7.22;4.00;;;13.10;99.90;;;;;;5135479;27;20042;-64
2022/04/24 09:32:48;;;;;;;13.05;5.22;;;12.90;99.90;;;;;;5134167;27;20031;-65
2022/04/24 09:35:32;;;;;;;13.32;5.20;;;12.80;99.90;;;;;;5134234;27;20046;-64
2022/04/24 09:38:13;;;;;;;9.30;4.22;;;12.80;99.90;;;;;;5135335;27;20046;-64
2022/04/24 09:40:40;;;;;;;10.10;4.30;;;13.80;99.90;;;;;;5135191;27;20118;-65
2022/04/24 09:43:10;;;;;;;12.20;4.35;;;13.70;99.90;;;;;;5133861;27;20047;-63
2022/04/24 09:45:37;;;;;;;15.35;4.35;;;13.10;99.90;;;;;;5135294;27;20047;-63
2022/04/24 09:48:11;;;;;;;17.33;5.40;;;13.60;99.90;;;;;;5135285;27;20338;-64
2022/04/24 09:50:38;;;;;;;8.82;3.83;;;12.60;99.90;;;;;;5134558;27;20050;-64
2022/04/24 09:53:05;;;;;;;8.10;3.60;;;13.10;99.90;;;;;;5134978;27;20126;-65
2022/04/24 09:55:31;;;;;;;12.07;3.90;;;12.80;99.90;;;;;;5135159;27;20411;-65
2022/04/24 09:57:57;;;;;;;10.13;4.35;;;12.90;99.90;;;;;;5135252;27;20055;-66
2022/04/24 10:00:23;;;;;;;13.45;4.20;;;13.10;99.90;;;;;;5135562;27;20039;-65
2022/04/24 10:02:52;;;;;;;13.30;3.97;;;12.60;99.90;;;;;;5135441;27;20082;-65
2022/04/24 10:05:18;;;;;;;11.80;4.35;;;13.00;99.90;;;;;;5134761;27;20138;-65
2022/04/24 10:07:45;;;;;;;13.10;4.40;;;13.20;99.90;;;;;;5134969;27;20088;-65
2022/04/24 10:10:12;;;;;;;9.05;4.13;;;13.10;99.90;;;;;;5134672;27;20716;-62
2022/04/24 10:12:38;;;;;;;;;;;13.10;99.90;;;;;;5132092;27;20490;-64
2022/04/24 10:15:05;;;;;;;13.45;4.75;;;13.20;99.90;;;;;;5134558;27;20299;-65
2022/04/24 10:18:02;;;;;;;10.98;4.40;;;13.20;99.90;;;;;;5120713;27;20505;-66
2022/04/24 10:21:06;;;;;;;7.55;4.20;;;13.20;99.90;;;;;;5134245;27;20134;-64
2022/04/24 10:23:37;;;;;;;6.28;3.50;;;13.20;99.90;;;;;;5089322;28;20052;-66
2022/04/24 10:26:14;;;;;;;7.53;4.22;;;13.60;99.90;;;;;;5114049;28;20047;-63
2022/04/24 10:28:41;;;;;;;8.68;4.28;;;13.50;99.90;;;;;;5112835;28;20484;-66
2022/04/24 10:31:09;;;;;;;10.73;4.22;;;13.60;99.90;;;;;;5113750;27;20500;-65
2022/04/24 10:33:36;;;;;;;12.88;4.43;;;13.70;99.90;;;;;;5113456;28;20052;-63
2022/04/24 10:36:03;;;;;;;12.38;4.60;;;14.90;99.90;;;;;;5113916;28;20053;-65
2022/04/24 10:38:31;;;;;;;9.15;4.18;;;13.50;99.90;;;;;;5113877;28;20377;-62
2022/04/24 10:41:13;;;;;;;14.27;6.28;;;15.20;99.90;;;;;;5113617;28;20070;-64
2022/04/24 10:43:46;;;;;;;10.73;5.00;;;13.80;99.90;;;;;;5113472;28;20446;-66
2022/04/24 10:46:47;;;;;;;11.30;5.60;;;13.60;99.90;;;;;;5125472;27;20126;-64
2022/04/24 10:49:15;;;;;;;9.18;5.18;;;13.40;99.90;;;;;;5051696;28;20049;-65
2022/04/24 10:51:43;;;;;;;11.18;4.95;;;13.80;99.90;;;;;;5105504;28;20414;-64
2022/04/24 10:54:13;;;;;;;13.93;5.05;;;13.70;99.90;;;;;;5109428;27;20526;-64
2022/04/24 10:56:41;;;;;;;16.65;5.82;;;13.70;99.90;;;;;;5113681;28;20458;-63
2022/04/24 10:59:20;;;;;;;11.80;5.60;;;13.60;99.90;;;;;;5113518;28;20051;-64
2022/04/24 11:01:49;;;;;;;10.52;5.40;;;13.30;99.90;;;;;;5111861;27;20116;-66
2022/04/24 11:04:15;;;;;;;12.35;6.00;;;14.10;99.90;;;;;;5113304;28;20106;-65
2022/04/24 11:06:58;;;;;;;9.27;5.68;;;13.20;99.90;;;;;;5113897;27;20066;-64
2022/04/24 11:09:29;;;;;;;11.43;5.57;;;13.40;99.90;;;;;;5133869;27;20047;-65
2022/04/24 11:12:03;;;;;;;10.82;5.20;;;13.20;99.90;;;;;;5121813;27;20496;-66
2022/04/24 11:14:30;;;;;;;10.68;5.80;;;13.40;99.90;;;;;;5111507;28;20138;-65
2022/04/24 11:16:57;;;;;;;10.82;6.05;;;13.20;99.90;;;;;;5095040;28;20079;-63
2022/04/24 11:19:37;;;;;;;11.63;6.10;;;14.60;99.90;;;;;;5112858;28;20122;-64
2022/04/24 11:22:13;;;;;;;15.63;6.50;;;13.30;99.90;;;;;;5128118;27;20099;-67
2022/04/24 11:24:41;;;;;;;11.10;5.60;;;14.00;99.90;;;;;;5130658;27;20483;-67
2022/04/24 11:27:14;;;;;;;11.07;5.72;;;13.40;99.90;;;;;;5120688;27;20488;-66
2022/04/24 11:29:43;;;;;;;9.18;5.78;;;13.70;99.90;;;;;;5111960;28;20086;-67
2022/04/24 11:32:09;;;;;;;11.95;5.15;;;13.80;99.90;;;;;;5112847;28;20047;-68
2022/04/24 11:34:36;;;;;;;13.63;6.72;;;13.70;99.90;;;;;;5130352;27;20102;-66
2022/04/24 11:37:04;;;;;;;10.75;5.32;;;13.60;99.90;;;;;;5113452;27;20134;-66
2022/04/24 11:39:31;;;;;;;14.32;6.18;;;13.40;99.90;;;;;;5112160;28;20196;-65
2022/04/24 11:41:58;;;;;;;12.35;5.75;;;13.60;99.90;;;;;;5112016;28;20044;-66
2022/04/24 11:50:15;;;;;;;14.65;6.22;;;13.30;99.90;;;;;;5111078;28;20212;-68
2022/04/24 11:52:49;;;;;;;11.68;6.10;;;13.30;99.90;;;;;;5111849;28;20083;-65
2022/04/24 11:55:20;;;;;;;11.23;6.05;;;13.70;99.90;;;;;;5110671;28;20082;-65
2022/04/24 11:57:56;;;;;;;14.30;6.78;;;13.50;99.90;;;;;;5112075;28;20449;-66
2022/04/24 12:00:37;;;;;;;14.68;6.80;;;13.50;99.90;;;;;;5112166;28;20408;-66
2022/04/24 12:03:05;;;;;;;10.93;6.78;;;13.70;99.90;;;;;;5111965;28;20139;-70
2022/04/24 12:05:32;;;;;;;14.73;6.30;;;13.70;99.90;;;;;;5111508;28;20066;-63
2022/04/24 12:07:58;;;;;;;;;;;13.50;99.90;;;;;;5112350;28;20047;-65
2022/04/24 12:10:24;;;;;;;10.60;6.00;;;13.60;99.90;;;;;;5112088;28;20308;-68
2022/04/24 12:12:52;;;;;;;11.88;6.43;;;14.20;99.90;;;;;;5111200;28;20509;-69
2022/04/24 12:15:24;;;;;;;9.68;6.28;;;13.90;99.90;;;;;;5110371;28;20177;-66
2022/04/24 12:17:57;;;;;;;11.20;6.20;;;13.70;99.90;;;;;;5111847;28;20130;-68
2022/04/24 12:20:40;;;;;;;8.25;5.88;;;14.00;99.90;;;;;;5111820;28;20055;-67
2022/04/24 12:23:17;;;;;;;13.48;5.88;;;14.20;99.90;;;;;;5111837;28;20404;-66
2022/04/24 12:25:59;;;;;;;8.02;5.32;;;14.00;99.90;;;;;;5110189;28;20048;-67
2022/04/24 12:28:40;;;;;;;13.40;4.95;;;13.90;99.90;;;;;;5110678;28;20047;-67
2022/04/24 12:31:07;;;;;;;11.60;5.75;;;14.10;99.90;;;;;;5111852;28;20052;-68
2022/04/24 12:33:46;;;;;;;12.15;6.20;;;13.80;99.90;;;;;;5111726;28;20186;-64
2022/04/24 12:36:13;;;;;;;10.77;6.32;;;14.10;99.90;;;;;;5111407;28;20051;-65
2022/04/24 12:38:40;;;;;;;14.02;5.72;;;14.00;99.90;;;;;;5111436;28;20134;-66
2022/04/24 12:41:10;;;;;;;13.52;5.40;;;14.30;99.90;;;;;;5112786;28;20095;-69
2022/04/24 12:43:36;;;;;;;9.45;5.57;;;14.00;99.90;;;;;;5114725;27;20046;-65
2022/04/24 12:46:02;;;;;;;;;;;13.60;99.90;;;;;;5131120;27;20051;-67
2022/04/24 12:48:29;;;;;;;8.02;5.10;;;13.70;99.90;;;;;;5131905;27;19992;-69
2022/04/24 12:50:54;;;;;;;7.60;4.80;;;13.70;99.90;;;;;;5131356;27;20368;-67
2022/04/24 12:53:22;;;;;;;;;;;14.20;99.90;;;;;;5112776;27;20039;-69
2022/04/24 12:55:50;;;;;;;7.70;4.35;;;14.10;99.90;;;;;;5135621;27;19919;-67
2022/04/24 12:58:16;;;;;;;8.63;5.30;;;14.20;99.90;;;;;;5134791;27;20104;-68
2022/04/24 13:00:45;;;;;;;6.97;4.35;;;14.30;99.90;;;;;;5135934;27;20175;-67
2022/04/24 13:03:12;;;;;;;6.70;4.70;;;14.60;99.90;;;;;;5135945;27;20055;-64
2022/04/24 13:05:39;;;;;;;11.30;4.90;;;14.10;99.90;;;;;;5135252;27;20061;-66
2022/04/24 13:08:06;;;;;;;9.27;4.40;;;14.30;99.90;;;;;;5136007;27;20403;-66